Time;durP1;ratioP1;P1;durP2;ratioP2;P2;SDS_P1;SDS_P2;PMS_P1;PMS_P2;Temp;Humidity;BMP_temperature;BMP_pressure;BME280_temperature;BME280_humidity;BME280_pressure;Samples;Min_cycle;Max_cycle;Signal;HPM_P1;HPM_P2
2022/09/27 00:02:20;;;;;;;6.40;4.63;;;;;;;;;;5040319;28;92672;-66
2022/09/27 00:04:51;;;;;;;7.30;3.53;;;;;;;;;;5051678;27;91300;-66
2022/09/27 00:07:20;;;;;;;6.77;4.13;;;;;;;;;;5037544;27;93945;-66
2022/09/27 00:09:48;;;;;;;4.70;3.77;;;;;;;;;;5041456;27;93813;-67
2022/09/27 00:12:18;;;;;;;4.63;2.80;;;;;;;;;;5054130;27;93186;-66
2022/09/27 00:14:46;;;;;;;4.47;2.70;;;;;;;;;;5035203;27;93608;-67
2022/09/27 00:17:15;;;;;;;6.13;2.80;;;;;;;;;;5030195;27;93822;-66
2022/09/27 00:19:43;;;;;;;4.13;2.70;;;;;;;;;;5029749;28;92902;-66
2022/09/27 00:22:15;;;;;;;4.87;2.97;;;;;;;;;;5045748;27;92127;-66
2022/09/27 00:43:49;;;;;;;2.23;2.00;;;;;;;;;;5020215;28;93389;-66
2022/09/27 00:46:19;;;;;;;3.33;1.73;;;;;;;;;;5038028;28;94745;-66
2022/09/27 00:48:48;;;;;;;2.37;1.67;;;;;;;;;;5039402;28;92026;-66
2022/09/27 00:51:16;;;;;;;2.30;1.73;;;;;;;;;;5039452;28;92092;-66
2022/09/27 00:53:47;;;;;;;1.50;1.40;;;;;;;;;;5038647;28;94063;-66
2022/09/27 00:56:16;;;;;;;3.03;2.07;;;;;;;;;;5035514;28;93123;-66
2022/09/27 00:58:46;;;;;;;1.50;1.13;;;;;;;;;;5035862;28;92134;-66
2022/09/27 01:01:16;;;;;;;5.00;1.60;;;;;;;;;;5020546;28;91361;-66
2022/09/27 01:03:45;;;;;;;2.20;1.00;;;;;;;;;;5036580;28;93982;-66
2022/09/27 01:06:14;;;;;;;3.90;1.47;;;;;;;;;;5040431;28;93327;-67
2022/09/27 01:08:42;;;;;;;1.97;1.27;;;;;;;;;;5038212;28;93074;-66
2022/09/27 01:11:15;;;;;;;1.60;1.00;;;;;;;;;;5038922;27;92607;-66
2022/09/27 01:13:44;;;;;;;2.30;1.53;;;;;;;;;;5040165;27;93995;-66
2022/09/27 01:16:14;;;;;;;1.47;1.37;;;;;;;;;;5039581;28;94029;-67
2022/09/27 01:18:44;;;;;;;2.50;1.40;;;;;;;;;;5038073;28;92048;-66
2022/09/27 01:21:26;;;;;;;1.90;1.40;;;;;;;;;;5038657;28;92046;-66
2022/09/27 01:24:01;;;;;;;6.60;1.53;;;;;;;;;;5038160;28;93200;-66
2022/09/27 01:26:53;;;;;;;1.47;1.00;;;;;;;;;;5038145;28;93838;-66
2022/09/27 01:29:22;;;;;;;2.00;1.00;;;;;;;;;;5028506;28;92672;-67
2022/09/27 01:31:53;;;;;;;2.30;1.13;;;;;;;;;;5037638;28;92183;-67
2022/09/27 01:34:23;;;;;;;1.67;0.80;;;;;;;;;;5037425;28;97627;-67
2022/09/27 01:36:53;;;;;;;2.10;0.90;;;;;;;;;;5022720;28;94770;-67
2022/09/27 01:39:24;;;;;;;2.97;1.33;;;;;;;;;;5034796;28;92121;-66
2022/09/27 01:41:54;;;;;;;2.63;1.20;;;;;;;;;;5039072;28;91953;-66
2022/09/27 01:44:24;;;;;;;3.90;1.10;;;;;;;;;;5038656;28;94230;-66
2022/09/27 01:46:55;;;;;;;1.13;0.80;;;;;;;;;;5039100;27;94891;-66
2022/09/27 01:49:24;;;;;;;1.17;0.90;;;;;;;;;;5039162;27;92117;-66
2022/09/27 01:51:53;;;;;;;2.53;0.90;;;;;;;;;;5038427;28;91345;-66
2022/09/27 01:54:24;;;;;;;2.53;1.90;;;;;;;;;;5037409;28;96444;-66
2022/09/27 01:56:53;;;;;;;3.10;1.10;;;;;;;;;;5038322;28;92744;-66
2022/09/27 01:59:24;;;;;;;1.47;1.23;;;;;;;;;;5037831;28;93591;-66
2022/09/27 02:01:56;;;;;;;2.97;0.90;;;;;;;;;;5037583;28;92181;-67
2022/09/27 02:04:25;;;;;;;1.70;1.27;;;;;;;;;;5038590;28;94711;-66
2022/09/27 02:06:54;;;;;;;1.13;0.80;;;;;;;;;;5037122;28;93902;-67
2022/09/27 02:09:23;;;;;;;3.97;0.67;;;;;;;;;;5037692;28;92238;-66
2022/09/27 02:11:54;;;;;;;1.47;1.10;;;;;;;;;;5037844;28;92049;-67
2022/09/27 02:14:24;;;;;;;2.43;0.90;;;;;;;;;;5033616;28;93483;-66
2022/09/27 02:16:52;;;;;;;1.63;0.70;;;;;;;;;;5036901;28;92456;-67
2022/09/27 02:19:25;;;;;;;3.40;1.17;;;;;;;;;;5038118;28;92435;-66
2022/09/27 02:21:55;;;;;;;1.13;0.70;;;;;;;;;;5036873;28;92257;-67
2022/09/27 02:24:25;;;;;;;0.70;0.70;;;;;;;;;;5036774;28;94987;-67
2022/09/27 02:26:56;;;;;;;0.83;0.83;;;;;;;;;;5036625;28;94722;-67
2022/09/27 02:29:26;;;;;;;1.40;1.00;;;;;;;;;;5038072;28;93349;-67
2022/09/27 02:31:54;;;;;;;0.83;0.77;;;;;;;;;;5037507;28;92045;-67
2022/09/27 02:34:24;;;;;;;1.53;0.93;;;;;;;;;;5037900;28;93685;-67
2022/09/27 02:36:53;;;;;;;0.50;0.50;;;;;;;;;;5038387;28;93989;-66
2022/09/27 02:39:21;;;;;;;1.17;0.83;;;;;;;;;;5037424;28;92153;-67
2022/09/27 02:41:50;;;;;;;2.20;1.00;;;;;;;;;;5036735;28;91614;-66
2022/09/27 02:44:20;;;;;;;1.37;0.87;;;;;;;;;;5037906;28;94236;-67
2022/09/27 02:46:51;;;;;;;0.77;0.77;;;;;;;;;;5037592;28;97302;-66
2022/09/27 02:49:23;;;;;;;0.50;0.50;;;;;;;;;;5036280;28;93003;-67
2022/09/27 02:51:55;;;;;;;0.67;0.67;;;;;;;;;;5035976;28;92095;-66
2022/09/27 02:54:25;;;;;;;1.07;0.40;;;;;;;;;;5037135;28;93313;-66
2022/09/27 02:56:56;;;;;;;1.60;0.77;;;;;;;;;;5024876;28;96769;-66
2022/09/27 02:59:27;;;;;;;0.53;0.40;;;;;;;;;;5038983;28;92101;-66
2022/09/27 03:01:59;;;;;;;1.33;0.53;;;;;;;;;;5042047;27;92016;-66
2022/09/27 03:04:30;;;;;;;2.60;0.80;;;;;;;;;;5064861;27;91904;-66
2022/09/27 03:07:00;;;;;;;1.67;0.80;;;;;;;;;;5059814;28;92822;-66
2022/09/27 03:09:42;;;;;;;0.73;0.43;;;;;;;;;;5054908;28;92011;-66
2022/09/27 03:12:11;;;;;;;0.80;0.63;;;;;;;;;;5037480;27;93115;-66
2022/09/27 03:14:39;;;;;;;3.50;1.13;;;;;;;;;;5028579;28;95124;-66
2022/09/27 03:17:09;;;;;;;2.27;0.70;;;;;;;;;;5036841;28;94899;-66
2022/09/27 03:19:37;;;;;;;0.43;0.33;;;;;;;;;;5037802;28;92049;-67
2022/09/27 03:22:07;;;;;;;0.40;0.40;;;;;;;;;;5038388;28;92028;-67
2022/09/27 03:24:35;;;;;;;1.97;0.47;;;;;;;;;;5036192;28;94141;-67
2022/09/27 03:27:04;;;;;;;0.30;0.30;;;;;;;;;;5023686;28;94499;-67
2022/09/27 03:29:32;;;;;;;2.07;0.77;;;;;;;;;;5037401;28;92050;-67
2022/09/27 03:32:00;;;;;;;0.50;0.43;;;;;;;;;;5037603;28;91262;-67
2022/09/27 03:34:29;;;;;;;0.33;0.33;;;;;;;;;;5037173;28;94281;-67
2022/09/27 03:36:57;;;;;;;0.93;0.70;;;;;;;;;;5040167;27;93871;-67
2022/09/27 03:39:27;;;;;;;0.60;0.50;;;;;;;;;;5040390;28;93131;-67
2022/09/27 03:41:55;;;;;;;0.77;0.40;;;;;;;;;;5040198;27;92077;-67
2022/09/27 03:44:24;;;;;;;0.40;0.40;;;;;;;;;;5039979;28;94514;-67
2022/09/27 03:46:56;;;;;;;1.00;0.33;;;;;;;;;;5038061;28;92601;-66
2022/09/27 03:49:24;;;;;;;0.43;0.43;;;;;;;;;;5036839;28;92215;-67
2022/09/27 03:51:52;;;;;;;1.07;0.33;;;;;;;;;;5034443;28;92146;-66
2022/09/27 03:54:21;;;;;;;0.40;0.40;;;;;;;;;;5037863;27;94291;-67
2022/09/27 03:56:50;;;;;;;0.23;0.23;;;;;;;;;;5042110;27;93919;-66
2022/09/27 03:59:19;;;;;;;0.40;0.33;;;;;;;;;;5040756;28;92060;-66
2022/09/27 04:01:47;;;;;;;3.63;0.50;;;;;;;;;;5041258;28;92324;-65
2022/09/27 04:04:16;;;;;;;0.60;0.50;;;;;;;;;;5039342;28;94045;-66
2022/09/27 04:06:44;;;;;;;0.53;0.53;;;;;;;;;;5035264;28;95378;-66
2022/09/27 04:09:12;;;;;;;0.60;0.60;;;;;;;;;;5041204;28;92053;-66
2022/09/27 04:11:41;;;;;;;1.40;0.90;;;;;;;;;;5041011;28;92085;-66
2022/09/27 04:14:11;;;;;;;0.87;0.87;;;;;;;;;;5038725;28;94061;-66
2022/09/27 04:16:40;;;;;;;0.90;0.80;;;;;;;;;;5040744;28;92540;-67
2022/09/27 04:19:09;;;;;;;2.83;1.33;;;;;;;;;;5040389;28;91943;-66
2022/09/27 04:21:38;;;;;;;0.73;0.73;;;;;;;;;;5047269;27;92844;-66
2022/09/27 04:24:06;;;;;;;1.80;1.13;;;;;;;;;;5039143;28;93758;-67
2022/09/27 04:26:36;;;;;;;1.30;1.10;;;;;;;;;;5039930;28;94085;-67
2022/09/27 04:29:04;;;;;;;1.30;1.10;;;;;;;;;;5040132;28;93124;-67
2022/09/27 04:31:34;;;;;;;1.83;1.33;;;;;;;;;;5039716;28;92102;-66
2022/09/27 04:34:02;;;;;;;1.33;1.00;;;;;;;;;;5036184;28;94026;-66
2022/09/27 04:36:29;;;;;;;2.87;1.37;;;;;;;;;;5039642;28;93962;-66
2022/09/27 04:38:59;;;;;;;1.73;1.33;;;;;;;;;;5039683;28;92056;-66
2022/09/27 04:41:28;;;;;;;2.17;0.90;;;;;;;;;;5037893;27;92117;-66
2022/09/27 04:44:00;;;;;;;1.20;0.90;;;;;;;;;;5038023;27;94134;-66
2022/09/27 04:46:30;;;;;;;5.13;1.67;;;;;;;;;;5041147;27;93839;-66
2022/09/27 04:49:00;;;;;;;2.43;1.50;;;;;;;;;;5040962;27;92005;-66
2022/09/27 04:51:28;;;;;;;4.70;1.10;;;;;;;;;;5040023;27;92729;-65
2022/09/27 04:53:57;;;;;;;1.37;1.13;;;;;;;;;;5036964;28;95354;-66
2022/09/27 04:56:25;;;;;;;2.20;1.57;;;;;;;;;;5039385;28;94257;-66
2022/09/27 04:58:53;;;;;;;2.00;1.00;;;;;;;;;;5039968;28;92359;-66
2022/09/27 05:01:22;;;;;;;2.43;1.43;;;;;;;;;;5038684;27;92055;-66
2022/09/27 05:03:50;;;;;;;2.10;1.37;;;;;;;;;;5044483;27;94077;-66
2022/09/27 05:06:20;;;;;;;1.83;1.40;;;;;;;;;;5039578;27;93880;-66
2022/09/27 05:08:49;;;;;;;3.20;1.23;;;;;;;;;;5037051;27;92826;-66
2022/09/27 05:11:21;;;;;;;1.23;0.90;;;;;;;;;;5060167;27;91372;-66
2022/09/27 05:13:50;;;;;;;2.27;1.37;;;;;;;;;;5055738;27;97209;-66
2022/09/27 05:16:18;;;;;;;1.87;1.00;;;;;;;;;;5059271;27;93735;-66
2022/09/27 05:18:47;;;;;;;1.43;1.00;;;;;;;;;;5038502;27;94323;-66
2022/09/27 05:21:15;;;;;;;1.67;1.20;;;;;;;;;;5038606;28;92084;-66
2022/09/27 05:23:45;;;;;;;2.47;1.03;;;;;;;;;;5035574;28;94399;-66
2022/09/27 05:26:15;;;;;;;0.60;0.60;;;;;;;;;;5037506;28;93795;-66
2022/09/27 05:28:44;;;;;;;2.43;1.10;;;;;;;;;;5028160;28;92303;-67
2022/09/27 05:31:13;;;;;;;1.13;0.70;;;;;;;;;;5045147;27;92118;-67
2022/09/27 05:33:41;;;;;;;3.23;1.60;;;;;;;;;;5051551;27;94397;-67
2022/09/27 05:36:10;;;;;;;2.20;1.00;;;;;;;;;;5041248;27;93740;-67
2022/09/27 05:38:40;;;;;;;0.97;0.70;;;;;;;;;;5042530;27;92232;-67
2022/09/27 05:41:10;;;;;;;0.80;0.80;;;;;;;;;;5048945;27;92070;-67
2022/09/27 05:43:38;;;;;;;1.13;1.03;;;;;;;;;;5038419;27;95319;-67
2022/09/27 05:46:07;;;;;;;1.47;1.00;;;;;;;;;;5055554;27;95209;-67
2022/09/27 05:48:35;;;;;;;0.97;0.83;;;;;;;;;;5040783;27;92011;-67
2022/09/27 05:51:04;;;;;;;0.60;0.60;;;;;;;;;;5039846;27;92203;-67
2022/09/27 05:53:33;;;;;;;0.47;0.43;;;;;;;;;;5043453;27;92238;-67
2022/09/27 05:56:02;;;;;;;1.47;0.70;;;;;;;;;;5039167;28;92986;-67
2022/09/27 05:58:33;;;;;;;2.43;0.87;;;;;;;;;;5034583;27;92393;-67
2022/09/27 06:01:01;;;;;;;0.53;0.50;;;;;;;;;;5054370;27;91367;-67
2022/09/27 06:03:30;;;;;;;0.40;0.40;;;;;;;;;;5040179;27;96761;-67
2022/09/27 06:05:58;;;;;;;0.60;0.57;;;;;;;;;;5038783;28;93935;-67
2022/09/27 06:08:26;;;;;;;0.63;0.63;;;;;;;;;;5042456;27;93036;-67
2022/09/27 06:11:00;;;;;;;0.40;0.40;;;;;;;;;;5057833;27;92188;-67
2022/09/27 06:13:33;;;;;;;2.17;0.83;;;;;;;;;;5037430;27;93972;-67
2022/09/27 06:16:04;;;;;;;1.13;1.03;;;;;;;;;;5027548;27;93657;-67
2022/09/27 06:18:33;;;;;;;1.57;0.90;;;;;;;;;;5052723;27;92098;-67
2022/09/27 06:21:01;;;;;;;2.23;1.77;;;;;;;;;;5033628;27;92040;-67
2022/09/27 06:23:31;;;;;;;4.07;2.57;;;;;;;;;;5036866;28;94710;-67
2022/09/27 06:26:02;;;;;;;4.63;3.30;;;;;;;;;;5046349;27;93893;-67
2022/09/27 06:28:30;;;;;;;5.00;2.50;;;;;;;;;;5056623;27;92106;-67
2022/09/27 06:31:01;;;;;;;9.63;3.40;;;;;;;;;;5048533;27;92094;-67
2022/09/27 06:33:29;;;;;;;7.57;3.97;;;;;;;;;;5037021;27;95027;-67
2022/09/27 06:35:58;;;;;;;8.77;5.17;;;;;;;;;;5037627;27;93710;-67
2022/09/27 06:38:26;;;;;;;9.83;5.17;;;;;;;;;;5034978;27;92058;-68
2022/09/27 06:40:56;;;;;;;12.27;5.77;;;;;;;;;;5037485;27;92171;-68
2022/09/27 06:43:26;;;;;;;12.13;6.57;;;;;;;;;;5016412;28;94596;-67
2022/09/27 06:45:54;;;;;;;11.40;6.43;;;;;;;;;;5016910;28;93870;-69
2022/09/27 06:48:24;;;;;;;14.53;6.57;;;;;;;;;;5017147;28;92164;-69
2022/09/27 06:50:54;;;;;;;11.43;6.17;;;;;;;;;;5018815;28;91532;-71
2022/09/27 06:53:23;;;;;;;9.40;6.10;;;;;;;;;;5014650;28;94270;-67
2022/09/27 06:55:53;;;;;;;11.77;6.40;;;;;;;;;;5015132;28;94081;-67
2022/09/27 07:01:07;;;;;;;11.03;6.27;;;;;;;;;;5016599;28;92175;-69
2022/09/27 07:03:40;;;;;;;12.37;6.67;;;;;;;;;;5017474;28;92798;-74
2022/09/27 07:06:10;;;;;;;10.73;6.40;;;;;;;;;;5016576;28;93977;-67
2022/09/27 07:08:39;;;;;;;9.40;6.30;;;;;;;;;;5017859;28;92128;-68
2022/09/27 07:11:07;;;;;;;11.07;6.43;;;;;;;;;;5018045;28;92160;-70
2022/09/27 07:13:39;;;;;;;11.77;6.47;;;;;;;;;;5030731;28;94794;-70
2022/09/27 07:16:07;;;;;;;10.37;5.73;;;;;;;;;;5033422;28;93912;-70
2022/09/27 07:18:47;;;;;;;12.67;6.20;;;;;;;;;;5018981;28;92480;-69
2022/09/27 07:21:15;;;;;;;12.80;5.77;;;;;;;;;;5020210;28;92102;-69
2022/09/27 07:23:45;;;;;;;10.70;6.63;;;;;;;;;;5020155;28;95044;-68
2022/09/27 07:26:13;;;;;;;11.90;6.37;;;;;;;;;;5020038;28;94880;-71
2022/09/27 07:28:43;;;;;;;11.23;5.73;;;;;;;;;;5020518;28;92109;-69
2022/09/27 07:31:14;;;;;;;11.07;6.43;;;;;;;;;;5020541;28;92162;-69
2022/09/27 07:33:46;;;;;;;13.30;7.03;;;;;;;;;;5020090;28;93862;-69
2022/09/27 07:36:14;;;;;;;11.57;6.13;;;;;;;;;;5019983;28;94146;-71
2022/09/27 07:38:43;;;;;;;10.87;6.53;;;;;;;;;;5020202;28;92703;-67
2022/09/27 07:41:12;;;;;;;11.30;6.53;;;;;;;;;;5019855;28;91430;-69
2022/09/27 07:43:42;;;;;;;11.57;5.80;;;;;;;;;;5019991;28;94428;-67
2022/09/27 07:46:12;;;;;;;13.73;7.60;;;;;;;;;;5020830;28;96550;-67
2022/09/27 07:48:41;;;;;;;10.73;5.10;;;;;;;;;;5020901;28;93164;-67
2022/09/27 07:51:10;;;;;;;10.43;6.30;;;;;;;;;;5021198;28;92094;-67
2022/09/27 07:53:39;;;;;;;9.57;6.80;;;;;;;;;;5019946;28;93984;-67
2022/09/27 07:56:08;;;;;;;12.43;6.60;;;;;;;;;;5020170;28;93811;-67
2022/09/27 07:58:36;;;;;;;11.03;5.77;;;;;;;;;;5021326;28;92077;-66
2022/09/27 08:01:06;;;;;;;10.90;5.77;;;;;;;;;;5020250;28;93943;-66
2022/09/27 08:03:35;;;;;;;8.50;5.30;;;;;;;;;;5020670;28;92575;-67
2022/09/27 08:06:04;;;;;;;12.87;6.90;;;;;;;;;;5020612;28;93431;-66
2022/09/27 08:08:33;;;;;;;10.60;6.40;;;;;;;;;;5021549;28;92119;-65
2022/09/27 08:11:02;;;;;;;10.23;6.57;;;;;;;;;;5021297;28;92088;-66
2022/09/27 08:13:31;;;;;;;9.00;5.77;;;;;;;;;;5019719;28;95297;-66
2022/09/27 08:16:02;;;;;;;13.00;6.17;;;;;;;;;;5020113;28;94290;-66
2022/09/27 08:18:30;;;;;;;10.97;6.67;;;;;;;;;;5020751;28;92119;-66
2022/09/27 08:20:58;;;;;;;11.87;6.57;;;;;;;;;;5019889;28;92086;-66
2022/09/27 08:23:27;;;;;;;8.77;6.50;;;;;;;;;;5020379;28;92911;-65
2022/09/27 08:25:58;;;;;;;10.57;5.37;;;;;;;;;;5020241;28;96252;-65
2022/09/27 08:28:26;;;;;;;9.57;5.30;;;;;;;;;;5021008;28;93508;-66
2022/09/27 08:30:56;;;;;;;11.83;6.73;;;;;;;;;;5021160;28;92591;-66
2022/09/27 08:33:24;;;;;;;9.20;5.20;;;;;;;;;;5020258;28;94047;-66
2022/09/27 08:36:02;;;;;;;7.53;5.37;;;;;;;;;;5020036;28;95523;-66
2022/09/27 08:38:30;;;;;;;8.67;5.03;;;;;;;;;;5020606;28;93099;-66
2022/09/27 08:41:02;;;;;;;9.83;5.70;;;;;;;;;;5020005;28;92168;-66
2022/09/27 08:43:35;;;;;;;8.67;4.63;;;;;;;;;;5040375;28;94023;-66
2022/09/27 08:46:09;;;;;;;9.87;5.93;;;;;;;;;;5040046;28;93819;-66
2022/09/27 08:48:38;;;;;;;10.13;5.80;;;;;;;;;;5039540;28;92263;-66
2022/09/27 08:51:07;;;;;;;7.70;5.47;;;;;;;;;;5040072;28;92038;-66
2022/09/27 08:53:37;;;;;;;8.27;5.77;;;;;;;;;;5040283;28;94250;-68
2022/09/27 08:56:08;;;;;;;7.80;5.00;;;;;;;;;;5040024;28;93868;-65
2022/09/27 08:58:37;;;;;;;8.97;5.50;;;;;;;;;;5040302;28;92093;-66
2022/09/27 09:01:06;;;;;;;10.17;5.70;;;;;;;;;;5039671;28;92358;-65
2022/09/27 09:03:35;;;;;;;9.57;4.80;;;;;;;;;;5039843;28;94480;-65
2022/09/27 09:06:09;;;;;;;8.57;5.47;;;;;;;;;;5039807;28;94869;-66
2022/09/27 09:08:40;;;;;;;8.30;5.37;;;;;;;;;;5040506;28;92060;-65
2022/09/27 09:14:24;;;;;;;8.43;5.40;;;;;;;;;;5039632;28;94210;-65
2022/09/27 09:16:55;;;;;;;8.87;5.83;;;;;;;;;;5039414;28;93578;-66
2022/09/27 09:19:28;;;;;;;6.73;6.07;;;;;;;;;;5040382;28;91984;-66
2022/09/27 09:21:59;;;;;;;8.53;5.57;;;;;;;;;;5040961;28;91300;-66
2022/09/27 09:24:31;;;;;;;8.57;5.30;;;;;;;;;;5039604;28;94098;-66
2022/09/27 09:27:02;;;;;;;15.33;5.73;;;;;;;;;;5040136;28;93965;-65
2022/09/27 09:29:35;;;;;;;7.27;5.67;;;;;;;;;;5038935;28;93042;-66
2022/09/27 09:32:06;;;;;;;9.17;5.97;;;;;;;;;;5039064;27;92212;-66
2022/09/27 09:34:35;;;;;;;8.93;5.60;;;;;;;;;;5039484;28;92911;-66
2022/09/27 09:37:06;;;;;;;11.23;5.83;;;;;;;;;;5039963;28;95274;-66
2022/09/27 09:39:35;;;;;;;7.87;4.77;;;;;;;;;;5039750;28;92053;-66
2022/09/27 09:42:10;;;;;;;8.03;5.17;;;;;;;;;;5039363;28;92240;-66
2022/09/27 09:44:42;;;;;;;7.90;5.10;;;;;;;;;;5039810;28;93474;-65
2022/09/27 09:47:12;;;;;;;9.87;5.43;;;;;;;;;;5039595;28;92765;-65
2022/09/27 09:49:42;;;;;;;6.90;5.23;;;;;;;;;;5040253;28;92110;-65
2022/09/27 09:52:11;;;;;;;7.73;4.97;;;;;;;;;;5039914;28;92159;-65
2022/09/27 09:54:41;;;;;;;8.10;5.20;;;;;;;;;;5038888;28;95509;-65
2022/09/27 09:57:13;;;;;;;7.20;4.47;;;;;;;;;;5039146;28;93576;-66
2022/09/27 09:59:43;;;;;;;6.23;4.17;;;;;;;;;;5038860;28;91960;-65
2022/09/27 10:02:16;;;;;;;7.97;4.60;;;;;;;;;;5038733;28;92021;-66
2022/09/27 10:04:45;;;;;;;11.07;4.53;;;;;;;;;;5039063;28;94228;-65
2022/09/27 10:07:14;;;;;;;9.83;4.63;;;;;;;;;;5038815;28;93838;-65
2022/09/27 10:09:42;;;;;;;7.70;3.77;;;;;;;;;;5039323;28;92112;-66
2022/09/27 10:12:12;;;;;;;9.40;4.40;;;;;;;;;;5039665;28;91417;-66
2022/09/27 10:14:40;;;;;;;8.03;3.90;;;;;;;;;;5038329;28;94057;-65
2022/09/27 10:17:11;;;;;;;6.17;4.00;;;;;;;;;;5027952;28;93955;-66
2022/09/27 10:19:39;;;;;;;8.17;3.30;;;;;;;;;;5027484;28;93681;-65
2022/09/27 10:22:12;;;;;;;6.37;4.03;;;;;;;;;;5028806;28;92047;-67
2022/09/27 10:24:53;;;;;;;6.47;4.17;;;;;;;;;;5027667;28;94024;-67
2022/09/27 10:27:26;;;;;;;6.77;3.80;;;;;;;;;;5027760;28;93764;-66
2022/09/27 10:29:58;;;;;;;4.37;3.50;;;;;;;;;;5028337;28;92256;-65
2022/09/27 10:32:29;;;;;;;7.00;3.70;;;;;;;;;;5028575;28;92121;-66
2022/09/27 10:34:58;;;;;;;6.60;4.20;;;;;;;;;;5026664;28;94110;-68
2022/09/27 10:37:26;;;;;;;4.77;3.57;;;;;;;;;;5025635;28;93453;-66
2022/09/27 10:39:56;;;;;;;7.83;4.53;;;;;;;;;;5028193;28;92078;-66
2022/09/27 10:42:33;;;;;;;6.70;3.87;;;;;;;;;;5022524;28;92760;-65
2022/09/27 10:45:17;;;;;;;7.33;4.00;;;;;;;;;;5010759;28;97442;-66
2022/09/27 10:47:45;;;;;;;5.90;4.37;;;;;;;;;;5015584;28;94854;-65
2022/09/27 10:50:17;;;;;;;7.80;5.40;;;;;;;;;;5016916;28;93035;-66
2022/09/27 10:53:05;;;;;;;6.77;4.23;;;;;;;;;;5016053;28;92124;-65
2022/09/27 10:55:34;;;;;;;6.97;4.73;;;;;;;;;;5016401;28;93641;-66
2022/09/27 10:58:04;;;;;;;7.17;4.20;;;;;;;;;;5016383;28;93806;-65
2022/09/27 11:00:33;;;;;;;5.83;3.87;;;;;;;;;;5014250;28;92209;-65
2022/09/27 11:03:03;;;;;;;7.00;5.30;;;;;;;;;;5017382;28;91217;-66
2022/09/27 11:05:32;;;;;;;9.83;5.40;;;;;;;;;;5016286;28;94083;-66
2022/09/27 11:08:02;;;;;;;7.90;5.33;;;;;;;;;;5016337;28;92630;-66
2022/09/27 11:10:34;;;;;;;9.10;5.13;;;;;;;;;;5013115;28;93271;-67
2022/09/27 11:13:11;;;;;;;8.77;5.00;;;;;;;;;;5017053;28;92108;-66
2022/09/27 11:15:45;;;;;;;10.90;5.37;;;;;;;;;;5014049;28;94541;-66
2022/09/27 11:18:18;;;;;;;9.97;5.37;;;;;;;;;;5013856;28;93566;-65
2022/09/27 11:20:47;;;;;;;7.30;5.13;;;;;;;;;;5016906;28;92077;-66
2022/09/27 11:23:24;;;;;;;9.60;5.00;;;;;;;;;;5016794;28;92147;-67
2022/09/27 11:25:58;;;;;;;9.43;5.37;;;;;;;;;;5015504;28;94173;-66
2022/09/27 11:28:35;;;;;;;5.63;4.77;;;;;;;;;;5015234;28;93882;-66
2022/09/27 11:31:06;;;;;;;9.20;6.37;;;;;;;;;;5015722;28;92044;-66
2022/09/27 11:33:42;;;;;;;9.57;5.40;;;;;;;;;;5014646;28;92075;-66
2022/09/27 11:36:12;;;;;;;9.20;6.43;;;;;;;;;;5012132;28;95144;-66
2022/09/27 11:38:45;;;;;;;10.83;6.40;;;;;;;;;;5015879;28;94645;-66
2022/09/27 11:41:27;;;;;;;10.37;6.30;;;;;;;;;;5016804;28;92299;-66
2022/09/27 11:44:07;;;;;;;8.23;5.83;;;;;;;;;;5025454;28;92245;-66
2022/09/27 11:46:35;;;;;;;8.93;6.57;;;;;;;;;;5024487;28;93016;-66
2022/09/27 11:49:24;;;;;;;8.57;5.40;;;;;;;;;;5024579;28;93837;-66
2022/09/27 11:51:54;;;;;;;7.80;5.80;;;;;;;;;;5023508;28;92195;-65
2022/09/27 11:54:29;;;;;;;8.87;5.80;;;;;;;;;;5031502;28;91355;-66
2022/09/27 11:56:59;;;;;;;10.67;6.83;;;;;;;;;;5039136;27;94247;-66
2022/09/27 11:59:55;;;;;;;10.10;6.93;;;;;;;;;;5041166;28;93317;-66
2022/09/27 12:02:28;;;;;;;11.80;7.50;;;;;;;;;;4982772;28;93110;-66
2022/09/27 12:05:07;;;;;;;13.50;7.27;;;;;;;;;;5041371;28;92722;-66
2022/09/27 12:07:37;;;;;;;11.67;6.67;;;;;;;;;;5040743;28;93519;-68
2022/09/27 12:10:08;;;;;;;12.50;7.90;;;;;;;;;;5040626;28;92448;-67
2022/09/27 12:12:37;;;;;;;14.40;8.60;;;;;;;;;;5041238;28;92147;-66
2022/09/27 12:15:06;;;;;;;14.23;8.70;;;;;;;;;;5032755;27;92117;-67
2022/09/27 12:17:36;;;;;;;14.80;8.33;;;;;;;;;;5032890;28;94078;-69
2022/09/27 12:20:08;;;;;;;12.23;9.27;;;;;;;;;;5028069;28;93771;-66
2022/09/27 12:22:38;;;;;;;12.60;7.73;;;;;;;;;;5029713;28;92280;-67
2022/09/27 12:25:28;;;;;;;11.73;8.57;;;;;;;;;;5027425;28;92094;-67
2022/09/27 12:27:58;;;;;;;11.93;7.77;;;;;;;;;;5028099;28;94938;-69
2022/09/27 12:30:27;;;;;;;14.00;8.00;;;;;;;;;;5029832;28;94796;-68
2022/09/27 12:32:57;;;;;;;13.33;8.77;;;;;;;;;;5027448;28;92131;-68
2022/09/27 12:35:26;;;;;;;15.53;8.87;;;;;;;;;;5030022;28;92156;-68
2022/09/27 12:37:56;;;;;;;14.10;8.77;;;;;;;;;;5029044;28;94220;-69
2022/09/27 12:40:26;;;;;;;13.20;8.07;;;;;;;;;;5027218;28;96651;-68
2022/09/27 12:42:58;;;;;;;14.30;9.50;;;;;;;;;;5027923;28;92126;-68
2022/09/27 12:45:31;;;;;;;12.27;8.83;;;;;;;;;;5029313;28;93178;-67
2022/09/27 12:48:04;;;;;;;15.47;9.67;;;;;;;;;;5028829;28;92928;-65
2022/09/27 12:50:35;;;;;;;15.17;9.17;;;;;;;;;;5028012;28;93917;-67
2022/09/27 12:53:04;;;;;;;14.07;8.57;;;;;;;;;;5027565;28;93270;-69
2022/09/27 12:55:48;;;;;;;15.63;9.07;;;;;;;;;;5028426;28;92558;-68
2022/09/27 12:58:32;;;;;;;19.07;9.57;;;;;;;;;;5016635;28;93694;-69
2022/09/27 13:01:02;;;;;;;14.40;8.93;;;;;;;;;;5026920;28;93955;-71
2022/09/27 13:03:39;;;;;;;10.73;8.40;;;;;;;;;;5027985;28;93006;-67
2022/09/27 13:06:15;;;;;;;11.97;9.00;;;;;;;;;;5026536;28;92327;-67
2022/09/27 13:09:10;;;;;;;13.10;8.57;;;;;;;;;;5019205;28;92918;-66
2022/09/27 13:11:44;;;;;;;16.40;10.00;;;;;;;;;;4973374;28;93193;-66
2022/09/27 13:14:18;;;;;;;12.97;8.83;;;;;;;;;;5018408;28;92185;-66
2022/09/27 13:16:50;;;;;;;13.70;9.13;;;;;;;;;;5027032;28;92043;-66
2022/09/27 13:19:37;;;;;;;14.93;7.70;;;;;;;;;;5038826;28;95125;-66
2022/09/27 13:22:07;;;;;;;15.50;8.87;;;;;;;;;;5025146;28;94844;-66
2022/09/27 13:24:47;;;;;;;18.90;9.97;;;;;;;;;;5019764;28;92119;-67
2022/09/27 13:27:35;;;;;;;18.37;8.47;;;;;;;;;;5018228;28;92082;-68
2022/09/27 13:30:22;;;;;;;15.43;10.47;;;;;;;;;;5018824;28;94326;-67
2022/09/27 13:33:06;;;;;;;21.03;12.13;;;;;;;;;;5018466;28;94231;-68
2022/09/27 13:35:34;;;;;;;16.83;10.07;;;;;;;;;;5018824;28;92192;-68
2022/09/27 13:38:05;;;;;;;18.10;9.07;;;;;;;;;;5017680;28;91424;-67
2022/09/27 13:40:35;;;;;;;18.77;10.37;;;;;;;;;;5018492;28;94665;-68
2022/09/27 13:43:06;;;;;;;27.23;10.93;;;;;;;;;;5018892;28;93994;-68
2022/09/27 13:45:35;;;;;;;17.60;9.63;;;;;;;;;;5027449;28;93098;-67
2022/09/27 13:48:08;;;;;;;18.33;10.33;;;;;;;;;;5039903;28;92105;-67
2022/09/27 13:50:38;;;;;;;22.27;10.80;;;;;;;;;;5038371;28;94323;-67
2022/09/27 13:53:08;;;;;;;15.17;8.73;;;;;;;;;;5037611;28;94129;-67
2022/09/27 13:55:41;;;;;;;20.37;10.67;;;;;;;;;;5040200;28;92073;-67
2022/09/27 13:58:16;;;;;;;20.83;9.93;;;;;;;;;;5039780;28;92091;-67
2022/09/27 14:00:45;;;;;;;19.83;10.43;;;;;;;;;;5038857;28;94219;-67
2022/09/27 14:03:16;;;;;;;21.23;10.27;;;;;;;;;;5038926;28;93926;-67
2022/09/27 14:05:47;;;;;;;16.53;9.63;;;;;;;;;;5038889;28;92096;-67
2022/09/27 14:08:24;;;;;;;19.47;9.67;;;;;;;;;;5039544;28;92017;-67
2022/09/27 14:10:54;;;;;;;17.73;9.70;;;;;;;;;;5037893;28;95141;-68
2022/09/27 14:13:24;;;;;;;15.70;9.40;;;;;;;;;;5038463;27;92024;-68
2022/09/27 14:15:53;;;;;;;17.30;9.03;;;;;;;;;;5037895;28;92073;-67
2022/09/27 14:18:22;;;;;;;19.03;9.33;;;;;;;;;;5038575;27;92068;-67
2022/09/27 14:20:51;;;;;;;15.03;8.90;;;;;;;;;;5036486;28;93682;-70
2022/09/27 14:23:21;;;;;;;15.67;9.17;;;;;;;;;;5036875;28;94214;-65
2022/09/27 14:25:50;;;;;;;17.00;9.90;;;;;;;;;;5019160;28;92072;-65
2022/09/27 14:28:22;;;;;;;19.13;9.37;;;;;;;;;;5022223;28;91546;-67
2022/09/27 14:31:05;;;;;;;26.97;10.20;;;;;;;;;;5038490;28;93433;-61
2022/09/27 14:33:34;;;;;;;24.83;10.73;;;;;;;;;;5036743;28;94114;-65
2022/09/27 14:38:52;;;;;;;16.50;9.27;;;;;;;;;;5022732;27;93183;-60
2022/09/27 14:41:21;;;;;;;15.40;8.60;;;;;;;;;;5051351;27;93650;-61
2022/09/27 14:43:50;;;;;;;21.03;8.50;;;;;;;;;;5038152;28;95554;-62
2022/09/27 14:46:27;;;;;;;15.73;7.57;;;;;;;;;;5049646;27;92079;-60
2022/09/27 14:48:56;;;;;;;21.57;6.63;;;;;;;;;;5056618;27;92145;-60
2022/09/27 14:51:27;;;;;;;15.87;7.83;;;;;;;;;;5055636;27;94298;-59
2022/09/27 14:53:59;;;;;;;20.53;8.23;;;;;;;;;;5057192;27;93950;-61
2022/09/27 14:56:29;;;;;;;17.83;7.13;;;;;;;;;;5058001;27;91940;-68
2022/09/27 14:59:01;;;;;;;10.53;5.87;;;;;;;;;;5057159;27;92085;-62
2022/09/27 15:01:29;;;;;;;9.27;5.43;;;;;;;;;;5057815;27;95336;-61
2022/09/27 15:04:03;;;;;;;14.00;6.20;;;;;;;;;;5058489;27;94867;-62
2022/09/27 15:06:32;;;;;;;14.90;6.77;;;;;;;;;;5057650;27;92043;-64
2022/09/27 15:09:03;;;;;;;16.57;6.00;;;;;;;;;;5044582;27;92106;-62
2022/09/27 15:11:33;;;;;;;10.73;6.30;;;;;;;;;;5037799;28;93122;-62
2022/09/27 15:14:08;;;;;;;9.63;5.67;;;;;;;;;;5032869;28;94004;-71
2022/09/27 15:16:36;;;;;;;7.50;4.73;;;;;;;;;;5033999;28;92041;-69
2022/09/27 15:19:13;;;;;;;9.17;5.20;;;;;;;;;;5023643;28;91442;-69
2022/09/27 15:21:41;;;;;;;7.10;5.00;;;;;;;;;;5034252;28;94261;-69
2022/09/27 15:24:41;;;;;;;13.77;6.47;;;;;;;;;;5016328;28;93327;-69
2022/09/27 15:27:16;;;;;;;10.27;5.30;;;;;;;;;;5030405;28;93043;-70
2022/09/27 15:29:48;;;;;;;8.67;5.20;;;;;;;;;;5030892;27;92297;-71